This is the latest recevied weather packets stored in our database for station/object K3BAK-13. If no packets are shown the sender has not sent any weather packets the latest 10 day(s).
| Time | Temp. | Humidity | Pressure | Rain* | Wind** | Luminosity | Snow |
|---|---|---|---|---|---|---|---|
| 1777533959 | 7.78° C | 93% | 1010.6 hPa | 0 mm | - | - | - |
| 1777532460 | 7.78° C | 93% | 1010.7 hPa | 0 mm | - | - | - |
| 1777532159 | 8.33° C | 93% | 1010.8 hPa | 0 mm | - | - | - |
| 1777528559 | 8.33° C | 94% | 1011.1 hPa | 0 mm | - | - | - |
| 1777527959 | 8.33° C | 94% | 1011.1 hPa | 0 mm | - | - | - |
| 1777526459 | 8.33° C | 94% | 1011.4 hPa | 0 mm | - | - | - |
| 1777525558 | 8.33° C | 94% | 1011.4 hPa | 0 mm | - | - | - |
| 1777525261 | 8.33° C | 94% | 1011.2 hPa | 0 mm | - | - | - |
| 1777523161 | 8.89° C | 94% | 1011.4 hPa | 0 mm | - | - | - |
| 1777522258 | 8.89° C | 94% | 1011.4 hPa | 0 mm | - | - | - |
| 1777521662 | 8.89° C | 95% | 1011.5 hPa | 0 mm | - | - | - |
| 1777517158 | 9.44° C | 94% | 1011.3 hPa | 0 mm | - | - | - |
| 1777516858 | 9.44° C | 94% | 1011.2 hPa | 0 mm | - | - | - |
| 1777515362 | 10° C | 95% | 1011 hPa | 0 mm | - | - | - |
| 1777513859 | 10.56° C | 95% | 1011 hPa | 0 mm | - | - | - |
| 1777512665 | 10.56° C | 95% | 1010.8 hPa | 0 mm | - | - | - |
| 1777507861 | 12.22° C | 95% | 1009.4 hPa | 2.29 mm | - | - | - |
| 1777503661 | 13.33° C | 92% | 1008.5 hPa | 0 mm | - | - | - |
| 1777502158 | 13.33° C | 92% | 1008.2 hPa | 0 mm | - | - | - |
| 1777501259 | 13.89° C | 93% | 1008 hPa | 0 mm | - | - | - |
| 1777500660 | 14.44° C | 93% | 1007.6 hPa | 0 mm | - | - | - |
| 1777499168 | 14.44° C | 93% | 1007.2 hPa | 0.25 mm | - | - | - |
| 1777498859 | 14.44° C | 93% | 1007 hPa | 0.25 mm | - | - | - |
| 1777498558 | 14.44° C | 93% | 1006.7 hPa | 0.25 mm | - | - | - |
| 1777497660 | 14.44° C | 93% | 1007.2 hPa | 0.25 mm | - | - | - |
* Rain latest hour (hover to see other rain measurements)
** Current wind speed in m/s (hover to see current wind gust speed)